createdAt,value
2022-11-25T00:03:20.334Z,11.85
2022-11-25T00:08:22.111Z,11.97
2022-11-25T00:13:23.945Z,10.95
2022-11-25T00:18:27.161Z,11.07
2022-11-25T00:23:33.166Z,11.37
2022-11-25T00:28:35.389Z,10.66
2022-11-25T00:33:38.636Z,11.27
2022-11-25T00:38:40.545Z,10.37
2022-11-25T00:44:21.150Z,10.21
2022-11-25T00:49:25.089Z,10.16
2022-11-25T00:54:26.903Z,10.07
2022-11-25T00:59:29.078Z,10.12
2022-11-25T01:04:32.298Z,10.13
2022-11-25T01:09:34.342Z,9.84
2022-11-25T01:14:38.921Z,9.69
2022-11-25T01:19:42.332Z,9.62
2022-11-25T01:24:44.136Z,9.65
2022-11-25T01:29:46.071Z,9.72
2022-11-25T01:34:49.863Z,10.10
2022-11-25T01:39:51.683Z,9.70
2022-11-25T01:45:26.592Z,9.43
2022-11-25T01:50:31.717Z,9.56
2022-11-25T01:55:35.958Z,9.77
2022-11-25T02:00:38.821Z,9.51
2022-11-25T02:05:45.930Z,9.46
2022-11-25T02:10:49.143Z,10.04
2022-11-25T02:15:53.074Z,9.43
2022-11-25T02:20:56.385Z,9.35
2022-11-25T02:26:00.451Z,9.47
2022-11-25T02:31:03.099Z,9.74
2022-11-25T02:36:06.872Z,9.80
2022-11-25T02:41:10.958Z,9.98
2022-11-25T02:46:20.356Z,9.67
2022-11-25T02:51:24.724Z,10.54
2022-11-25T02:56:29.270Z,9.93
2022-11-25T03:01:31.662Z,10.13
2022-11-25T03:06:33.950Z,10.15
2022-11-25T03:12:12.549Z,10.04
2022-11-25T03:17:14.799Z,10.15
2022-11-25T03:22:16.622Z,10.06
2022-11-25T03:27:19.777Z,9.52
2022-11-25T03:32:21.709Z,9.59
2022-11-25T03:37:23.736Z,9.37
2022-11-25T03:42:26.993Z,9.45
2022-11-25T03:47:31.587Z,9.45
2022-11-25T03:52:33.667Z,9.27
2022-11-25T03:57:38.102Z,9.49
2022-11-25T04:02:41.408Z,9.55
2022-11-25T04:07:44.012Z,10.01
2022-11-25T04:12:47.991Z,9.60
2022-11-25T04:17:57.330Z,9.57
2022-11-25T04:22:59.829Z,9.54
2022-11-25T04:28:04.274Z,9.29
2022-11-25T04:33:08.831Z,9.35
2022-11-25T04:38:10.727Z,9.50
2022-11-25T04:43:15.103Z,9.39
2022-11-25T04:48:25.122Z,9.36
2022-11-25T04:53:27.069Z,9.05
2022-11-25T04:58:50.571Z,9.09
2022-11-25T05:03:57.348Z,9.19
2022-11-25T05:09:00.986Z,9.17
2022-11-25T05:14:05.030Z,9.18
2022-11-25T05:19:07.515Z,9.53
2022-11-25T05:24:09.323Z,9.33
2022-11-25T05:29:13.732Z,9.19
2022-11-25T05:34:16.139Z,9.06
2022-11-25T05:39:19.543Z,9.18
2022-11-25T05:44:43.728Z,9.01
2022-11-25T05:49:45.671Z,8.99
2022-11-25T05:54:47.513Z,9.37
2022-11-25T05:59:50.765Z,9.00
2022-11-25T06:05:00.266Z,9.10
2022-11-25T06:10:03.495Z,8.92
2022-11-25T06:15:11.011Z,8.97
2022-11-25T06:20:14.459Z,9.50
2022-11-25T06:25:16.418Z,9.62
2022-11-25T06:30:20.068Z,9.27
2022-11-25T06:35:34.764Z,8.97
2022-11-25T06:40:37.824Z,8.94
2022-11-25T06:45:41.028Z,8.92
2022-11-25T06:50:42.904Z,9.01
2022-11-25T06:55:44.682Z,8.83
2022-11-25T07:00:47.895Z,9.37
2022-11-25T07:05:49.640Z,9.52
2022-11-25T07:10:51.548Z,9.41
2022-11-25T07:15:54.699Z,8.87
2022-11-25T07:20:56.501Z,8.68
2022-11-25T07:26:02.068Z,8.59
2022-11-25T07:31:23.803Z,8.63
2022-11-25T07:36:26.793Z,9.00
2022-11-25T07:41:28.676Z,9.23
2022-11-25T07:46:32.460Z,9.45
2022-11-25T07:51:35.051Z,9.53
2022-11-25T07:56:38.275Z,9.56
2022-11-25T08:01:41.691Z,9.85
2022-11-25T08:06:44.695Z,10.08
2022-11-25T08:11:46.675Z,9.62
2022-11-25T08:16:49.795Z,9.80
2022-11-25T08:21:51.614Z,9.66
2022-11-25T08:26:54.912Z,9.89
2022-11-25T08:31:58.464Z,10.04
2022-11-25T08:37:00.332Z,10.32
2022-11-25T08:42:02.522Z,10.61
2022-11-25T08:47:05.705Z,10.63
2022-11-25T08:52:08.945Z,10.53
2022-11-25T08:57:10.766Z,10.51
2022-11-25T09:02:15.414Z,10.37
2022-11-25T09:07:17.251Z,10.35
2022-11-25T09:12:19.154Z,10.42
2022-11-25T09:17:22.318Z,10.75
2022-11-25T09:22:24.135Z,10.81
2022-11-25T09:27:25.883Z,10.99
2022-11-25T09:32:29.247Z,11.23
2022-11-25T09:37:31.017Z,11.40
2022-11-25T09:43:05.976Z,10.88
2022-11-25T09:48:19.196Z,10.57
2022-11-25T09:53:26.592Z,10.78
2022-11-25T09:58:32.250Z,10.94
2022-11-25T10:03:38.051Z,11.02
2022-11-25T10:08:40.479Z,11.02
2022-11-25T10:13:47.037Z,10.95
2022-11-25T10:18:52.393Z,11.15
2022-11-25T10:23:54.177Z,11.20
2022-11-25T10:29:00.155Z,11.19
2022-11-25T10:34:10.766Z,11.06
2022-11-25T10:39:14.238Z,11.34
2022-11-25T10:44:19.920Z,11.56
2022-11-25T10:49:25.782Z,11.96
2022-11-25T10:54:28.288Z,11.64
2022-11-25T10:59:30.850Z,11.77
2022-11-25T11:04:34.699Z,11.73
2022-11-25T11:09:37.426Z,11.89
2022-11-25T11:14:39.301Z,12.08
2022-11-25T11:19:42.398Z,12.16
2022-11-25T11:24:44.504Z,12.28
2022-11-25T11:29:46.274Z,12.10
2022-11-25T11:34:55.298Z,12.48
2022-11-25T11:40:14.900Z,12.41
2022-11-25T11:45:28.986Z,12.51
2022-11-25T11:50:32.602Z,12.24
2022-11-25T11:56:33.151Z,12.81
2022-11-25T12:01:29.431Z,13.01
2022-11-25T12:06:33.486Z,12.93
2022-11-25T12:11:36.828Z,13.24
2022-11-25T12:16:40.646Z,13.32
2022-11-25T12:21:46.831Z,12.96
2022-11-25T12:26:51.226Z,12.85
2022-11-25T12:31:56.268Z,12.89
2022-11-25T12:37:04.115Z,12.86
2022-11-25T12:42:10.173Z,13.28
2022-11-25T12:47:11.899Z,12.99
2022-11-25T12:52:32.272Z,13.29
2022-11-25T12:57:56.930Z,13.41
2022-11-25T13:03:28.864Z,13.19
2022-11-25T13:08:43.442Z,13.51
2022-11-25T13:13:51.421Z,13.72
2022-11-25T13:18:53.466Z,14.27
2022-11-25T13:23:57.171Z,14.39
2022-11-25T13:28:59.107Z,13.45
2022-11-25T13:34:25.446Z,13.60
2022-11-25T13:39:32.567Z,13.78
2022-11-25T13:44:35.951Z,14.06
2022-11-25T13:49:43.352Z,13.60
2022-11-25T13:54:48.281Z,13.56
2022-11-25T13:59:52.162Z,13.65
2022-11-25T14:04:54.840Z,13.74
2022-11-25T14:10:07.816Z,14.25
2022-11-25T14:15:29.930Z,14.43
2022-11-25T14:20:36.439Z,13.59
2022-11-25T14:25:46.335Z,14.09
2022-11-25T14:30:53.546Z,13.85
2022-11-25T14:35:56.208Z,13.73
2022-11-25T14:41:01.539Z,13.66
2022-11-25T14:46:10.800Z,13.66
2022-11-25T14:51:16.505Z,14.32
2022-11-25T14:56:24.352Z,13.93
2022-11-25T15:01:26.997Z,13.93
2022-11-25T15:06:29.075Z,14.06
2022-11-25T15:11:33.102Z,13.96
2022-11-25T15:16:35.851Z,14.19
2022-11-25T15:22:07.042Z,13.98
2022-11-25T15:27:02.709Z,13.87
2022-11-25T15:32:04.776Z,13.41
2022-11-25T15:37:06.573Z,14.17
2022-11-25T15:42:16.209Z,13.68
2022-11-25T15:47:21.111Z,13.76
2022-11-25T15:52:22.888Z,13.86
2022-11-25T15:57:28.044Z,13.85
2022-11-25T16:02:40.005Z,13.65
2022-11-25T16:07:59.203Z,13.80
2022-11-25T16:13:36.663Z,14.01
2022-11-25T16:18:41.358Z,14.12
2022-11-25T16:23:44.661Z,14.21
2022-11-25T16:28:55.184Z,14.07
2022-11-25T16:34:00.443Z,13.73
2022-11-25T16:39:02.193Z,13.51
2022-11-25T16:44:08.732Z,13.50
2022-11-25T16:49:12.148Z,14.24
2022-11-25T16:54:14.316Z,14.27
2022-11-25T16:59:18.835Z,14.26
2022-11-25T17:04:20.618Z,14.30
2022-11-25T17:09:22.377Z,14.76
2022-11-25T17:14:28.572Z,14.76
2022-11-25T17:19:30.532Z,14.73
2022-11-25T17:24:33.158Z,14.60
2022-11-25T17:29:38.088Z,14.71
2022-11-25T17:34:39.878Z,14.02
2022-11-25T17:39:41.747Z,14.26
2022-11-25T17:44:47.630Z,14.13
2022-11-25T17:49:53.308Z,13.87
2022-11-25T17:54:55.345Z,13.88
2022-11-25T17:59:59.047Z,13.82
2022-11-25T18:05:01.240Z,13.86
2022-11-25T18:10:03.207Z,14.14
2022-11-25T18:15:10.570Z,14.11
2022-11-25T18:20:16.876Z,14.33
2022-11-25T18:25:19.937Z,14.24
2022-11-25T18:30:25.173Z,14.17
2022-11-25T18:35:34.180Z,14.19
2022-11-25T18:40:42.475Z,14.01
2022-11-25T18:45:45.763Z,14.82
2022-11-25T18:50:47.907Z,15.02
2022-11-25T18:55:51.212Z,15.16
2022-11-25T19:00:54.632Z,14.22
2022-11-25T19:05:59.283Z,14.18
2022-11-25T19:11:01.068Z,13.97
2022-11-25T19:16:06.935Z,13.85
2022-11-25T19:21:09.982Z,13.55
2022-11-25T19:26:14.228Z,13.54
2022-11-25T19:31:17.790Z,13.23
2022-11-25T19:36:22.389Z,13.15
2022-11-25T19:41:24.384Z,13.04
2022-11-25T19:46:33.219Z,13.33
2022-11-25T19:51:38.930Z,13.06
2022-11-25T19:56:41.236Z,13.27
2022-11-25T20:01:44.898Z,13.34
2022-11-25T20:06:47.050Z,13.31
2022-11-25T20:11:54.243Z,13.52
2022-11-25T20:16:57.840Z,13.60
2022-11-25T20:21:59.822Z,13.63
2022-11-25T20:27:01.717Z,13.66
2022-11-25T20:32:15.370Z,13.58
2022-11-25T20:37:23.663Z,13.31
2022-11-25T20:42:25.480Z,13.52
2022-11-25T20:47:29.979Z,13.68
2022-11-25T20:52:31.908Z,13.70
2022-11-25T20:57:36.338Z,13.42
2022-11-25T21:02:39.565Z,13.46
2022-11-25T21:07:41.443Z,13.87
2022-11-25T21:12:43.370Z,13.59
2022-11-25T21:17:46.796Z,13.34
2022-11-25T21:22:50.230Z,13.61
2022-11-25T21:27:52.351Z,13.72
2022-11-25T21:32:56.078Z,13.64
2022-11-25T21:37:57.925Z,13.68
2022-11-25T21:43:02.758Z,13.55
2022-11-25T21:48:09.536Z,13.42
2022-11-25T21:53:11.269Z,13.76
2022-11-25T21:58:18.414Z,13.93
2022-11-25T22:03:22.025Z,13.74
2022-11-25T22:08:23.984Z,13.78
2022-11-25T22:13:29.011Z,13.84
2022-11-25T22:18:33.449Z,13.97
2022-11-25T22:23:35.235Z,14.10
2022-11-25T22:28:37.145Z,14.20
2022-11-25T22:33:40.403Z,13.89
2022-11-25T22:38:42.231Z,13.76
2022-11-25T22:43:45.469Z,13.93
2022-11-25T22:48:48.603Z,14.00
2022-11-25T22:53:50.791Z,14.12
2022-11-25T22:58:53.789Z,14.32
2022-11-25T23:03:56.920Z,14.36
2022-11-25T23:08:58.748Z,14.31
2022-11-25T23:14:00.531Z,15.04
2022-11-25T23:19:07.266Z,15.12
2022-11-25T23:24:11.511Z,15.15
2022-11-25T23:29:13.380Z,15.09
2022-11-25T23:34:16.531Z,14.89
2022-11-25T23:39:19.681Z,14.70
2022-11-25T23:44:23.884Z,14.62
2022-11-25T23:49:28.246Z,14.93
2022-11-25T23:54:31.837Z,14.76
2022-11-25T23:59:33.618Z,14.65
